In Rescue
 
Open Full Screen Window  High Contrast Mode
Wind Gusting 18 knots
11
May 20, 2019 2:25 PM EDT
Weather Information
Wind Direction
  270 °
Wind Speed
  11 kt (13 mph)
Wind Gust
  18 kt (21 mph)
Altimeter
29.95 in
Visibility
10 SM
Temperature
10° C
50° F
Dewpoint
05° C
41° F
Humidity
71%
Sky Condition
Overcast @ 2,700 ft
MVFR

METAR KCFS 201825Z AUTO 27011G18KT 10SM OVC027 10/05 A2995 RMK AO2 T00990052

FAA Disclaimer: The data displayed is for advisory purposes only and is not to be used for flight planning or operations.